createdAt,value
2022-10-12T00:00:37.189Z,13.77
2022-10-12T00:03:04.457Z,18.13
2022-10-12T00:05:31.566Z,16.98
2022-10-12T00:07:58.759Z,14.77
2022-10-12T00:10:25.990Z,17.67
2022-10-12T00:12:53.080Z,15.57
2022-10-12T00:15:20.216Z,17.98
2022-10-12T00:17:47.389Z,13.73
2022-10-12T00:20:14.496Z,13.23
2022-10-12T00:22:41.598Z,14.38
2022-10-12T00:25:09.063Z,17.65
2022-10-12T00:27:36.434Z,11.82
2022-10-12T00:30:04.349Z,14.85
2022-10-12T00:32:31.535Z,15.43
2022-10-12T00:34:58.705Z,16.23
2022-10-12T00:37:25.801Z,14.02
2022-10-12T00:39:53.097Z,16.00
2022-10-12T00:42:21.163Z,12.85
2022-10-12T00:44:49.284Z,15.60
2022-10-12T00:47:16.426Z,14.70
2022-10-12T00:49:44.173Z,13.10
2022-10-12T00:52:12.324Z,11.98
2022-10-12T00:54:43.665Z,12.98
2022-10-12T00:57:11.946Z,15.23
2022-10-12T00:59:45.834Z,12.85
2022-10-12T01:02:13.716Z,12.65
2022-10-12T01:04:41.101Z,13.80
2022-10-12T01:07:08.470Z,15.30
2022-10-12T01:09:35.584Z,13.82
2022-10-12T01:12:04.440Z,13.48
2022-10-12T01:14:31.798Z,14.50
2022-10-12T01:17:22.510Z,12.43
2022-10-12T01:20:02.103Z,16.58
2022-10-12T01:22:33.141Z,14.25
2022-10-12T01:25:12.731Z,15.05
2022-10-12T01:27:41.380Z,17.15
2022-10-12T01:30:09.957Z,15.25
2022-10-12T01:32:37.233Z,15.90
2022-10-12T01:35:04.325Z,14.98
2022-10-12T01:37:36.127Z,17.10
2022-10-12T01:40:06.460Z,20.42
2022-10-12T01:42:35.092Z,20.48
2022-10-12T01:45:03.355Z,15.38
2022-10-12T01:47:30.667Z,14.63
2022-10-12T01:49:58.100Z,16.10
2022-10-12T01:52:32.996Z,16.02
2022-10-12T01:55:07.278Z,13.32
2022-10-12T01:57:43.668Z,15.57
2022-10-12T02:00:11.956Z,15.52
2022-10-12T02:02:48.118Z,15.45
2022-10-12T02:05:25.593Z,15.82
2022-10-12T02:07:55.046Z,16.15
2022-10-12T02:10:25.043Z,17.73
2022-10-12T02:12:53.411Z,22.15
2022-10-12T02:15:22.317Z,17.15
2022-10-12T02:17:50.246Z,15.70
2022-10-12T02:20:19.092Z,17.70
2022-10-12T02:22:48.873Z,15.50
2022-10-12T02:25:17.629Z,14.27
2022-10-12T02:27:46.884Z,16.30
2022-10-12T02:30:14.196Z,16.65
2022-10-12T02:32:49.238Z,17.38
2022-10-12T02:35:21.727Z,18.27
2022-10-12T02:37:51.620Z,17.27
2022-10-12T02:40:18.777Z,17.05
2022-10-12T02:43:09.250Z,16.63
2022-10-12T02:45:37.109Z,17.70
2022-10-12T02:48:05.968Z,17.52
2022-10-12T02:50:33.679Z,15.75
2022-10-12T02:53:01.058Z,16.90
2022-10-12T02:55:30.290Z,19.67
2022-10-12T02:57:57.428Z,18.77
2022-10-12T03:00:24.569Z,17.13
2022-10-12T03:02:51.753Z,14.93
2022-10-12T03:05:18.868Z,21.13
2022-10-12T03:07:45.989Z,19.65
2022-10-12T03:10:13.366Z,19.08
2022-10-12T03:12:40.473Z,18.20
2022-10-12T03:15:07.681Z,16.23
2022-10-12T03:17:35.144Z,21.85
2022-10-12T03:20:02.418Z,17.20
2022-10-12T03:22:29.532Z,18.35
2022-10-12T03:24:57.038Z,18.83
2022-10-12T03:27:24.957Z,17.42
2022-10-12T03:29:52.089Z,18.13
2022-10-12T03:32:19.565Z,16.67
2022-10-12T03:34:46.724Z,21.23
2022-10-12T03:37:13.849Z,20.33
2022-10-12T03:39:41.184Z,18.52
2022-10-12T03:42:08.340Z,18.90
2022-10-12T03:44:35.488Z,20.98
2022-10-12T03:47:02.661Z,19.00
2022-10-12T03:49:29.774Z,18.52
2022-10-12T03:51:56.881Z,18.55
2022-10-12T03:54:24.045Z,18.65
2022-10-12T03:56:51.192Z,20.95
2022-10-12T03:59:18.312Z,17.83
2022-10-12T04:01:45.608Z,18.50
2022-10-12T04:04:12.954Z,21.83
2022-10-12T04:06:40.054Z,19.67
2022-10-12T04:09:07.316Z,19.52
2022-10-12T04:11:34.429Z,18.63
2022-10-12T04:14:01.553Z,24.17
2022-10-12T04:16:31.072Z,18.63
2022-10-12T04:18:58.477Z,20.33
2022-10-12T04:21:25.796Z,20.83
2022-10-12T04:23:53.037Z,20.27
2022-10-12T04:26:20.145Z,21.60
2022-10-12T04:28:47.300Z,21.13
2022-10-12T04:31:14.493Z,19.63
2022-10-12T04:33:41.594Z,16.85
2022-10-12T04:36:08.994Z,21.60
2022-10-12T04:38:36.248Z,25.27
2022-10-12T04:41:03.384Z,21.38
2022-10-12T04:43:30.506Z,26.25
2022-10-12T04:45:58.854Z,24.27
2022-10-12T04:48:26.430Z,21.38
2022-10-12T04:50:53.609Z,21.30
2022-10-12T04:53:20.807Z,22.55
2022-10-12T04:55:47.977Z,23.75
2022-10-12T04:58:15.125Z,24.50
2022-10-12T05:00:42.423Z,24.98
2022-10-12T05:03:09.537Z,23.42
2022-10-12T05:05:36.757Z,25.15
2022-10-12T05:08:04.462Z,24.38
2022-10-12T05:10:31.829Z,21.25
2022-10-12T05:12:59.022Z,25.05
2022-10-12T05:15:26.438Z,22.70
2022-10-12T05:17:53.570Z,23.00
2022-10-12T05:20:20.703Z,24.15
2022-10-12T05:22:47.889Z,23.40
2022-10-12T05:25:15.042Z,23.23
2022-10-12T05:27:42.157Z,26.13
2022-10-12T05:30:09.831Z,25.20
2022-10-12T05:32:37.305Z,24.52
2022-10-12T05:35:04.911Z,22.15
2022-10-12T05:37:33.727Z,23.02
2022-10-12T05:40:00.859Z,21.45
2022-10-12T05:42:28.153Z,22.48
2022-10-12T05:44:55.490Z,34.78
2022-10-12T05:47:22.625Z,25.45
2022-10-12T05:49:49.733Z,22.30
2022-10-12T05:52:17.081Z,25.15
2022-10-12T05:54:44.217Z,23.80
2022-10-12T05:57:11.460Z,28.85
2022-10-12T05:59:38.633Z,24.73
2022-10-12T06:02:05.779Z,26.08
2022-10-12T06:04:32.957Z,24.83
2022-10-12T06:07:00.157Z,26.63
2022-10-12T06:09:27.290Z,22.08
2022-10-12T06:11:54.498Z,25.02
2022-10-12T06:14:21.753Z,22.85
2022-10-12T06:16:53.758Z,22.70
2022-10-12T06:19:21.849Z,27.20
2022-10-12T06:21:50.000Z,22.58
2022-10-12T06:24:17.109Z,22.83
2022-10-12T06:26:45.031Z,24.08
2022-10-12T06:29:12.141Z,27.88
2022-10-12T06:31:39.990Z,24.92
2022-10-12T06:34:07.475Z,22.95
2022-10-12T06:36:34.600Z,23.33
2022-10-12T06:39:01.741Z,22.20
2022-10-12T06:41:28.984Z,21.00
2022-10-12T06:43:56.171Z,22.70
2022-10-12T06:46:23.290Z,26.17
2022-10-12T06:48:50.537Z,21.13
2022-10-12T06:51:17.691Z,22.13
2022-10-12T06:53:44.824Z,21.20
2022-10-12T06:56:12.353Z,19.80
2022-10-12T06:58:39.660Z,25.42
2022-10-12T07:01:07.411Z,24.83
2022-10-12T07:03:34.816Z,21.02
2022-10-12T07:06:10.281Z,20.30
2022-10-12T07:08:37.856Z,21.23
2022-10-12T07:11:05.776Z,22.23
2022-10-12T07:13:33.665Z,19.83
2022-10-12T07:16:01.209Z,23.67
2022-10-12T07:18:28.513Z,18.75
2022-10-12T07:20:59.843Z,23.52
2022-10-12T07:23:27.697Z,21.48
2022-10-12T07:25:55.345Z,20.88
2022-10-12T07:28:22.827Z,22.23
2022-10-12T07:30:50.113Z,26.20
2022-10-12T07:33:17.230Z,21.42
2022-10-12T07:36:10.531Z,22.55
2022-10-12T07:38:31.757Z,22.38
2022-10-12T07:40:59.688Z,23.63
2022-10-12T07:43:27.070Z,20.48
2022-10-12T07:45:54.296Z,22.25
2022-10-12T07:48:21.833Z,20.30
2022-10-12T07:50:49.107Z,24.63
2022-10-12T07:53:16.751Z,21.15
2022-10-12T07:55:43.891Z,21.42
2022-10-12T07:58:12.003Z,20.20
2022-10-12T08:00:39.635Z,18.80
2022-10-12T08:03:06.745Z,21.45
2022-10-12T08:05:33.952Z,17.02
2022-10-12T08:08:01.134Z,20.23
2022-10-12T08:10:28.407Z,17.58
2022-10-12T08:12:55.524Z,21.20
2022-10-12T08:15:22.792Z,19.92
2022-10-12T08:17:50.659Z,17.80
2022-10-12T08:20:17.871Z,17.40
2022-10-12T08:22:45.169Z,16.45
2022-10-12T08:25:12.314Z,17.00
2022-10-12T08:27:39.962Z,17.30
2022-10-12T08:30:07.685Z,17.98
2022-10-12T08:32:34.854Z,17.55
2022-10-12T08:35:02.233Z,17.02
2022-10-12T08:37:30.498Z,15.95
2022-10-12T08:40:02.211Z,15.73
2022-10-12T08:42:43.273Z,12.15
2022-10-12T08:45:19.643Z,13.25
2022-10-12T08:47:51.599Z,15.88
2022-10-12T08:50:33.365Z,13.73
2022-10-12T08:53:20.920Z,14.93
2022-10-12T08:55:48.091Z,11.88
2022-10-12T08:58:26.044Z,12.65
2022-10-12T09:00:55.989Z,14.73
2022-10-12T09:03:27.078Z,11.65
2022-10-12T09:05:57.325Z,10.18
2022-10-12T09:08:43.286Z,9.57
2022-10-12T09:11:13.470Z,8.25
2022-10-12T09:13:48.032Z,11.20
2022-10-12T09:16:21.912Z,9.43
2022-10-12T09:18:52.054Z,8.93
2022-10-12T09:21:20.688Z,12.90
2022-10-12T09:23:48.497Z,10.27
2022-10-12T09:26:18.553Z,9.13
2022-10-12T09:28:45.761Z,8.77
2022-10-12T09:31:18.997Z,10.20
2022-10-12T09:33:52.015Z,7.03
2022-10-12T09:36:23.255Z,8.23
2022-10-12T09:41:21.637Z,9.73
2022-10-12T09:43:53.061Z,10.57
2022-10-12T09:46:23.848Z,8.35
2022-10-12T09:48:57.271Z,7.13
2022-10-12T09:51:24.382Z,12.45
2022-10-12T09:53:56.715Z,7.25
2022-10-12T09:56:29.775Z,7.18
2022-10-12T09:58:59.460Z,9.48
2022-10-12T10:01:27.946Z,6.50
2022-10-12T10:04:08.794Z,6.57
2022-10-12T10:06:37.490Z,10.60
2022-10-12T10:09:04.828Z,8.02
2022-10-12T10:11:32.364Z,9.90
2022-10-12T10:14:00.852Z,10.40
2022-10-12T10:16:29.806Z,7.82
2022-10-12T10:18:58.249Z,9.40
2022-10-12T10:21:30.255Z,7.78
2022-10-12T10:24:04.467Z,10.75
2022-10-12T10:26:51.175Z,5.35
2022-10-12T10:29:31.582Z,10.63
2022-10-12T10:32:24.053Z,6.93
2022-10-12T10:35:18.267Z,8.77
2022-10-12T10:37:47.669Z,7.55
2022-10-12T10:40:18.105Z,9.27
2022-10-12T10:42:49.940Z,13.25
2022-10-12T10:45:25.079Z,7.95
2022-10-12T10:47:56.528Z,11.02
2022-10-12T10:50:26.875Z,5.90
2022-10-12T10:52:56.888Z,6.82
2022-10-12T10:55:53.624Z,11.98
2022-10-12T10:58:26.203Z,9.55
2022-10-12T11:00:55.705Z,7.28
2022-10-12T11:03:51.474Z,6.65
2022-10-12T11:06:36.359Z,7.22
2022-10-12T11:09:05.921Z,6.75
2022-10-12T11:11:35.369Z,8.85
2022-10-12T11:14:13.145Z,6.20
2022-10-12T11:16:46.187Z,8.68
2022-10-12T11:19:21.844Z,10.02
2022-10-12T11:21:53.590Z,6.78
2022-10-12T11:24:41.501Z,10.60
2022-10-12T11:27:14.323Z,6.38
2022-10-12T11:29:41.724Z,7.65
2022-10-12T11:32:27.443Z,10.82
2022-10-12T11:35:00.333Z,8.43
2022-10-12T11:37:47.740Z,9.10
2022-10-12T11:40:47.840Z,9.32
2022-10-12T11:43:14.238Z,5.97
2022-10-12T11:45:43.354Z,8.73
2022-10-12T11:48:24.853Z,10.43
2022-10-12T11:50:58.894Z,11.05
2022-10-12T11:53:34.658Z,10.73
2022-10-12T11:56:08.770Z,9.60
2022-10-12T11:58:59.433Z,8.38
2022-10-12T12:01:43.709Z,11.88
2022-10-12T12:04:39.995Z,8.15
2022-10-12T12:07:04.942Z,9.05
2022-10-12T12:09:32.094Z,9.35
2022-10-12T12:12:18.039Z,7.30
2022-10-12T12:14:50.177Z,8.48
2022-10-12T12:17:20.442Z,9.43
2022-10-12T12:19:51.775Z,10.20
2022-10-12T12:22:23.723Z,10.20
2022-10-12T12:24:56.090Z,6.50
2022-10-12T12:27:40.546Z,7.05
2022-10-12T12:30:21.923Z,9.63
2022-10-12T12:32:54.330Z,7.68
2022-10-12T12:35:27.611Z,7.32
2022-10-12T12:38:05.536Z,8.10
2022-10-12T12:40:33.103Z,7.03
2022-10-12T12:43:19.352Z,6.22
2022-10-12T12:48:45.482Z,7.68
2022-10-12T12:51:48.373Z,7.32
2022-10-12T12:54:24.714Z,6.82
2022-10-12T12:57:11.595Z,6.32
2022-10-12T12:59:57.529Z,5.25
2022-10-12T13:02:49.267Z,3.90
2022-10-12T13:05:38.201Z,7.80
2022-10-12T13:08:05.396Z,5.65
2022-10-12T13:10:39.309Z,5.93
2022-10-12T13:13:29.794Z,7.38
2022-10-12T13:16:06.032Z,5.30
2022-10-12T13:18:47.741Z,5.85
2022-10-12T13:21:17.811Z,8.15
2022-10-12T13:23:49.588Z,9.02
2022-10-12T13:26:19.777Z,5.28
2022-10-12T13:28:49.087Z,9.43
2022-10-12T13:31:22.333Z,5.18
2022-10-12T13:33:54.011Z,7.00
2022-10-12T13:36:24.231Z,6.38
2022-10-12T13:38:56.074Z,5.47
2022-10-12T13:41:25.599Z,8.20
2022-10-12T13:44:04.911Z,7.00
2022-10-12T13:46:44.019Z,6.65
2022-10-12T13:49:31.368Z,8.98
2022-10-12T13:52:03.299Z,9.75
2022-10-12T13:54:44.193Z,8.88
2022-10-12T13:57:21.809Z,4.45
2022-10-12T13:59:52.890Z,6.25
2022-10-12T14:02:24.571Z,9.38
2022-10-12T14:04:53.907Z,8.35
2022-10-12T14:07:35.490Z,7.32
2022-10-12T14:10:05.374Z,5.05
2022-10-12T14:12:32.915Z,7.40
2022-10-12T14:15:00.793Z,8.30
2022-10-12T14:17:27.929Z,6.65
2022-10-12T14:19:56.226Z,9.25
2022-10-12T14:22:26.261Z,7.50
2022-10-12T14:25:06.633Z,5.40
2022-10-12T14:27:34.637Z,5.43
2022-10-12T14:30:28.206Z,6.95
2022-10-12T14:32:59.715Z,7.30
2022-10-12T14:35:30.526Z,7.63
2022-10-12T14:37:59.276Z,6.80
2022-10-12T14:40:39.159Z,8.52
2022-10-12T14:43:15.321Z,11.15
2022-10-12T14:45:42.578Z,8.57
2022-10-12T14:48:20.817Z,8.18
2022-10-12T14:50:48.001Z,7.20
2022-10-12T14:53:15.280Z,6.30
2022-10-12T14:55:43.222Z,10.48
2022-10-12T14:58:17.289Z,8.38
2022-10-12T15:00:44.926Z,5.05
2022-10-12T15:03:12.427Z,11.40
2022-10-12T15:05:39.562Z,7.95
2022-10-12T15:08:09.228Z,9.32
2022-10-12T15:10:37.098Z,10.05
2022-10-12T15:13:04.334Z,11.32
2022-10-12T15:15:34.694Z,7.20
2022-10-12T15:18:01.890Z,8.90
2022-10-12T15:20:29.861Z,7.68
2022-10-12T15:22:57.719Z,7.72
2022-10-12T15:25:26.617Z,8.60
2022-10-12T15:27:53.715Z,8.60
2022-10-12T15:30:21.321Z,8.57
2022-10-12T15:32:48.547Z,11.48
2022-10-12T15:35:19.498Z,11.02
2022-10-12T15:37:47.009Z,9.93
2022-10-12T15:40:14.714Z,11.45
2022-10-12T15:42:42.675Z,11.70
2022-10-12T15:45:15.270Z,8.25
2022-10-12T15:47:42.441Z,9.73
2022-10-12T15:50:09.612Z,11.35
2022-10-12T15:52:36.777Z,11.05
2022-10-12T15:55:04.129Z,10.02
2022-10-12T15:57:31.231Z,9.27
2022-10-12T15:59:58.501Z,8.57
2022-10-12T16:02:25.707Z,10.90
2022-10-12T16:04:52.865Z,8.70
2022-10-12T16:07:20.091Z,14.88
2022-10-12T16:09:47.200Z,10.30
2022-10-12T16:12:14.342Z,12.93
2022-10-12T16:14:41.651Z,10.57
2022-10-12T16:17:08.770Z,11.50
2022-10-12T16:19:35.906Z,10.55
2022-10-12T16:22:04.847Z,10.52
2022-10-12T16:24:31.965Z,9.07
2022-10-12T16:26:59.096Z,10.75
2022-10-12T16:29:26.344Z,14.45
2022-10-12T16:31:53.457Z,8.30
2022-10-12T16:34:20.625Z,10.50
2022-10-12T16:36:47.908Z,9.82
2022-10-12T16:39:15.012Z,13.38
2022-10-12T16:41:42.152Z,14.48
2022-10-12T16:44:09.418Z,11.52
2022-10-12T16:46:37.102Z,12.10
2022-10-12T16:49:04.364Z,13.70
2022-10-12T16:51:31.593Z,11.30
2022-10-12T16:53:58.746Z,13.38
2022-10-12T16:56:25.909Z,13.98
2022-10-12T16:58:53.308Z,15.35
2022-10-12T17:01:20.519Z,13.18
2022-10-12T17:03:47.732Z,16.38
2022-10-12T17:06:14.997Z,15.68
2022-10-12T17:08:42.154Z,18.40
2022-10-12T17:11:09.832Z,15.07
2022-10-12T17:13:37.857Z,14.52
2022-10-12T17:16:25.754Z,14.63
2022-10-12T17:18:58.157Z,13.35
2022-10-12T17:21:26.800Z,14.05
2022-10-12T17:23:56.437Z,15.18
2022-10-12T17:26:23.738Z,13.02
2022-10-12T17:28:50.978Z,12.25
2022-10-12T17:31:18.299Z,10.60
2022-10-12T17:33:45.429Z,17.08
2022-10-12T17:36:14.076Z,15.10
2022-10-12T17:38:41.428Z,17.80
2022-10-12T17:41:08.606Z,16.77
2022-10-12T17:43:35.724Z,16.42
2022-10-12T17:46:05.052Z,15.32
2022-10-12T17:48:32.188Z,15.45
2022-10-12T17:51:03.321Z,13.38
2022-10-12T17:53:30.508Z,18.88
2022-10-12T17:56:00.985Z,14.20
2022-10-12T17:58:28.261Z,17.80
2022-10-12T18:00:55.616Z,14.60
2022-10-12T18:03:25.857Z,14.43
2022-10-12T18:05:53.394Z,13.20
2022-10-12T18:08:20.681Z,17.63
2022-10-12T18:10:50.984Z,12.82
2022-10-12T18:13:18.124Z,13.63
2022-10-12T18:15:45.468Z,12.52
2022-10-12T18:18:15.228Z,15.38
2022-10-12T18:20:42.762Z,15.77
2022-10-12T18:23:10.126Z,14.60
2022-10-12T18:25:40.778Z,14.25
2022-10-12T18:28:08.582Z,18.00
2022-10-12T18:30:36.401Z,15.45
2022-10-12T18:33:03.665Z,14.48
2022-10-12T18:35:31.244Z,15.50
2022-10-12T18:37:58.750Z,15.52
2022-10-12T18:40:26.152Z,17.27
2022-10-12T18:42:53.324Z,12.45
2022-10-12T18:45:20.553Z,13.43
2022-10-12T18:47:47.708Z,23.75
2022-10-12T18:50:14.900Z,12.13
2022-10-12T18:52:42.213Z,14.52
2022-10-12T18:55:09.741Z,18.73
2022-10-12T18:57:40.002Z,17.58
2022-10-12T19:00:08.661Z,17.25
2022-10-12T19:02:36.181Z,16.48
2022-10-12T19:05:03.443Z,20.23
2022-10-12T19:07:30.667Z,14.85
2022-10-12T19:09:58.033Z,18.48
2022-10-12T19:12:25.137Z,19.75
2022-10-12T19:14:52.441Z,19.27
2022-10-12T19:17:19.656Z,26.25
2022-10-12T19:19:46.839Z,25.50
2022-10-12T19:22:14.019Z,22.15
2022-10-12T19:24:41.149Z,19.35
2022-10-12T19:27:08.406Z,23.63
2022-10-12T19:29:35.676Z,18.33
2022-10-12T19:32:03.371Z,22.50
2022-10-12T19:34:30.619Z,24.48
2022-10-12T19:36:57.865Z,27.77
2022-10-12T19:39:25.231Z,22.05
2022-10-12T19:41:52.800Z,24.98
2022-10-12T19:44:20.297Z,22.35
2022-10-12T19:46:48.837Z,24.38
2022-10-12T19:49:17.575Z,25.48
2022-10-12T19:51:45.164Z,28.85
2022-10-12T19:54:13.288Z,23.40
2022-10-12T19:56:40.603Z,21.95
2022-10-12T19:59:08.025Z,23.25
2022-10-12T20:01:36.417Z,21.75
2022-10-12T20:04:09.033Z,24.80
2022-10-12T20:06:37.283Z,26.23
2022-10-12T20:09:05.080Z,25.15
2022-10-12T20:11:32.341Z,26.20
2022-10-12T20:13:59.569Z,31.10
2022-10-12T20:16:30.083Z,28.85
2022-10-12T20:19:01.307Z,30.25
2022-10-12T20:21:28.424Z,27.75
2022-10-12T20:23:55.659Z,26.83
2022-10-12T20:26:24.233Z,24.73
2022-10-12T20:28:51.744Z,23.65
2022-10-12T20:31:22.924Z,22.38
2022-10-12T20:33:51.469Z,23.90
2022-10-12T20:36:23.514Z,20.08
2022-10-12T20:38:51.503Z,17.65
2022-10-12T20:41:21.178Z,19.80
2022-10-12T20:43:48.334Z,19.77
2022-10-12T20:46:16.944Z,27.60
2022-10-12T20:48:44.685Z,23.75
2022-10-12T20:51:16.599Z,25.08
2022-10-12T20:53:43.816Z,22.23
2022-10-12T20:56:11.264Z,26.02
2022-10-12T20:58:38.425Z,21.27
2022-10-12T21:01:10.791Z,23.27
2022-10-12T21:03:38.076Z,20.92
2022-10-12T21:06:06.117Z,22.40
2022-10-12T21:08:33.366Z,23.38
2022-10-12T21:11:00.901Z,22.70
2022-10-12T21:13:30.652Z,22.15
2022-10-12T21:15:58.401Z,20.25
2022-10-12T21:18:25.992Z,22.27
2022-10-12T21:21:00.444Z,22.35
2022-10-12T21:23:27.702Z,22.55
2022-10-12T21:25:55.244Z,28.40
2022-10-12T21:28:23.536Z,25.73
2022-10-12T21:30:51.288Z,21.98
2022-10-12T21:33:19.127Z,22.30
2022-10-12T21:35:46.511Z,21.70
2022-10-12T21:38:13.997Z,22.15
2022-10-12T21:40:41.104Z,21.63
2022-10-12T21:43:08.290Z,24.20
2022-10-12T21:45:35.411Z,19.73
2022-10-12T21:48:02.589Z,24.25
2022-10-12T21:50:29.927Z,21.33
2022-10-12T21:53:00.327Z,25.42
2022-10-12T21:55:27.671Z,22.88
2022-10-12T21:57:54.931Z,23.00
2022-10-12T22:00:22.067Z,21.90
2022-10-12T22:02:49.189Z,23.60
2022-10-12T22:05:16.470Z,23.77
2022-10-12T22:07:44.041Z,26.27
2022-10-12T22:10:11.945Z,25.67
2022-10-12T22:12:39.791Z,25.70
2022-10-12T22:15:08.399Z,26.63
2022-10-12T22:17:35.900Z,23.52
2022-10-12T22:20:03.223Z,25.10
2022-10-12T22:22:30.343Z,27.27
2022-10-12T22:24:57.450Z,24.38
2022-10-12T22:27:24.645Z,29.48
2022-10-12T22:29:51.849Z,24.80
2022-10-12T22:32:19.189Z,26.45
2022-10-12T22:34:46.638Z,30.88
2022-10-12T22:37:13.778Z,34.20
2022-10-12T22:39:40.905Z,33.28
2022-10-12T22:42:08.127Z,29.95
2022-10-12T22:44:35.233Z,33.38
2022-10-12T22:47:02.343Z,29.90
2022-10-12T22:49:29.680Z,32.58
2022-10-12T22:51:56.842Z,27.23
2022-10-12T22:54:23.951Z,28.88
2022-10-12T22:56:53.993Z,27.58
2022-10-12T22:59:21.199Z,32.30
2022-10-12T23:01:48.404Z,26.80
2022-10-12T23:04:15.651Z,25.25
2022-10-12T23:06:42.806Z,26.35
2022-10-12T23:09:09.927Z,30.38
2022-10-12T23:11:37.110Z,27.30
2022-10-12T23:14:04.225Z,28.20
2022-10-12T23:16:32.198Z,32.15
2022-10-12T23:19:00.864Z,28.48
2022-10-12T23:21:28.629Z,30.65
2022-10-12T23:23:55.759Z,32.45
2022-10-12T23:26:24.367Z,39.40
2022-10-12T23:28:51.981Z,34.22
2022-10-12T23:31:20.334Z,31.88
2022-10-12T23:33:47.687Z,35.58
2022-10-12T23:36:15.949Z,31.33
2022-10-12T23:38:43.868Z,34.35
2022-10-12T23:41:11.866Z,28.95
2022-10-12T23:43:39.030Z,34.03
2022-10-12T23:46:06.534Z,31.05
2022-10-12T23:48:35.041Z,32.88
2022-10-12T23:51:02.245Z,36.70
2022-10-12T23:53:29.356Z,33.47
2022-10-12T23:55:56.751Z,30.75
2022-10-12T23:58:23.908Z,32.90
